sensor_id;sensor_type;location;lat;lon;timestamp;P1;durP1;ratioP1;P2;durP2;ratioP2
11531;SDS011;5822;51.000;5.874;2023-02-22T00:01:08;26.10;;;24.10;;
11531;SDS011;5822;51.000;5.874;2023-02-22T00:03:52;26.58;;;24.55;;
11531;SDS011;5822;51.000;5.874;2023-02-22T00:06:19;25.60;;;23.70;;
11531;SDS011;5822;51.000;5.874;2023-02-22T00:08:49;26.42;;;24.42;;
11531;SDS011;5822;51.000;5.874;2023-02-22T00:11:16;28.98;;;26.77;;
11531;SDS011;5822;51.000;5.874;2023-02-22T00:13:42;28.90;;;26.70;;
11531;SDS011;5822;51.000;5.874;2023-02-22T00:16:11;30.23;;;27.83;;
11531;SDS011;5822;51.000;5.874;2023-02-22T00:18:39;31.60;;;29.02;;
11531;SDS011;5822;51.000;5.874;2023-02-22T00:21:05;29.90;;;27.50;;
11531;SDS011;5822;51.000;5.874;2023-02-22T00:23:34;29.83;;;27.48;;
11531;SDS011;5822;51.000;5.874;2023-02-22T00:26:04;27.47;;;25.37;;
11531;SDS011;5822;51.000;5.874;2023-02-22T00:28:33;27.48;;;25.40;;
11531;SDS011;5822;51.000;5.874;2023-02-22T00:31:03;27.55;;;25.48;;
11531;SDS011;5822;51.000;5.874;2023-02-22T00:33:30;26.52;;;24.63;;
11531;SDS011;5822;51.000;5.874;2023-02-22T00:35:56;26.70;;;24.80;;
11531;SDS011;5822;51.000;5.874;2023-02-22T00:38:23;27.25;;;25.25;;
11531;SDS011;5822;51.000;5.874;2023-02-22T00:40:48;26.93;;;24.93;;
11531;SDS011;5822;51.000;5.874;2023-02-22T00:43:14;29.03;;;26.73;;
11531;SDS011;5822;51.000;5.874;2023-02-22T00:45:40;28.80;;;26.60;;
11531;SDS011;5822;51.000;5.874;2023-02-22T00:48:06;29.15;;;26.95;;
11531;SDS011;5822;51.000;5.874;2023-02-22T00:50:33;28.35;;;26.15;;
11531;SDS011;5822;51.000;5.874;2023-02-22T00:53:00;29.42;;;27.23;;
11531;SDS011;5822;51.000;5.874;2023-02-22T00:55:31;28.70;;;26.55;;
11531;SDS011;5822;51.000;5.874;2023-02-22T00:57:59;26.70;;;24.70;;
11531;SDS011;5822;51.000;5.874;2023-02-22T01:02:56;25.77;;;23.88;;
11531;SDS011;5822;51.000;5.874;2023-02-22T01:05:24;27.33;;;25.23;;
11531;SDS011;5822;51.000;5.874;2023-02-22T01:07:51;27.37;;;25.37;;
11531;SDS011;5822;51.000;5.874;2023-02-22T01:10:18;25.33;;;23.53;;
11531;SDS011;5822;51.000;5.874;2023-02-22T01:12:45;25.83;;;23.98;;
11531;SDS011;5822;51.000;5.874;2023-02-22T01:15:12;27.60;;;25.60;;
11531;SDS011;5822;51.000;5.874;2023-02-22T01:17:39;26.98;;;24.98;;
11531;SDS011;5822;51.000;5.874;2023-02-22T01:20:08;26.27;;;24.37;;
11531;SDS011;5822;51.000;5.874;2023-02-22T01:22:36;27.30;;;25.40;;
11531;SDS011;5822;51.000;5.874;2023-02-22T01:25:03;27.10;;;25.10;;
11531;SDS011;5822;51.000;5.874;2023-02-22T01:27:31;26.00;;;24.15;;
11531;SDS011;5822;51.000;5.874;2023-02-22T01:29:58;27.23;;;25.23;;
11531;SDS011;5822;51.000;5.874;2023-02-22T01:32:23;25.13;;;23.37;;
11531;SDS011;5822;51.000;5.874;2023-02-22T01:34:51;25.17;;;23.37;;
11531;SDS011;5822;51.000;5.874;2023-02-22T01:37:18;25.13;;;23.33;;
11531;SDS011;5822;51.000;5.874;2023-02-22T01:39:44;26.03;;;24.13;;
11531;SDS011;5822;51.000;5.874;2023-02-22T01:42:12;25.17;;;23.47;;
11531;SDS011;5822;51.000;5.874;2023-02-22T01:44:38;24.60;;;22.90;;
11531;SDS011;5822;51.000;5.874;2023-02-22T01:47:05;24.50;;;22.80;;
11531;SDS011;5822;51.000;5.874;2023-02-22T01:49:36;25.80;;;24.00;;
11531;SDS011;5822;51.000;5.874;2023-02-22T01:52:09;24.50;;;22.80;;
11531;SDS011;5822;51.000;5.874;2023-02-22T01:54:41;24.80;;;23.00;;
11531;SDS011;5822;51.000;5.874;2023-02-22T01:59:40;26.20;;;24.30;;
11531;SDS011;5822;51.000;5.874;2023-02-22T02:02:08;25.60;;;23.80;;
11531;SDS011;5822;51.000;5.874;2023-02-22T02:04:35;24.80;;;23.00;;
11531;SDS011;5822;51.000;5.874;2023-02-22T02:07:03;24.02;;;22.33;;
11531;SDS011;5822;51.000;5.874;2023-02-22T02:09:34;24.58;;;22.88;;
11531;SDS011;5822;51.000;5.874;2023-02-22T02:12:04;24.92;;;23.23;;
11531;SDS011;5822;51.000;5.874;2023-02-22T02:14:32;25.98;;;24.13;;
11531;SDS011;5822;51.000;5.874;2023-02-22T02:17:04;25.00;;;23.25;;
11531;SDS011;5822;51.000;5.874;2023-02-22T02:22:16;27.92;;;25.92;;
11531;SDS011;5822;51.000;5.874;2023-02-22T02:33:19;25.58;;;23.77;;
11531;SDS011;5822;51.000;5.874;2023-02-22T02:36:07;27.65;;;25.65;;
11531;SDS011;5822;51.000;5.874;2023-02-22T02:39:01;26.42;;;24.63;;
11531;SDS011;5822;51.000;5.874;2023-02-22T02:41:38;26.08;;;24.30;;
11531;SDS011;5822;51.000;5.874;2023-02-22T02:44:20;26.97;;;25.07;;
11531;SDS011;5822;51.000;5.874;2023-02-22T02:46:57;27.77;;;25.88;;
11531;SDS011;5822;51.000;5.874;2023-02-22T02:49:28;28.05;;;26.05;;
11531;SDS011;5822;51.000;5.874;2023-02-22T02:52:00;28.23;;;26.25;;
11531;SDS011;5822;51.000;5.874;2023-02-22T02:54:28;25.65;;;23.85;;
11531;SDS011;5822;51.000;5.874;2023-02-22T02:56:55;25.10;;;23.40;;
11531;SDS011;5822;51.000;5.874;2023-02-22T02:59:29;28.75;;;26.75;;
11531;SDS011;5822;51.000;5.874;2023-02-22T03:04:47;28.60;;;26.60;;
11531;SDS011;5822;51.000;5.874;2023-02-22T03:07:39;28.70;;;26.70;;
11531;SDS011;5822;51.000;5.874;2023-02-22T03:10:33;28.85;;;26.85;;
11531;SDS011;5822;51.000;5.874;2023-02-22T03:23:59;25.40;;;23.70;;
11531;SDS011;5822;51.000;5.874;2023-02-22T03:26:42;23.83;;;22.30;;
11531;SDS011;5822;51.000;5.874;2023-02-22T03:29:13;23.10;;;21.60;;
11531;SDS011;5822;51.000;5.874;2023-02-22T03:31:44;22.40;;;20.95;;
11531;SDS011;5822;51.000;5.874;2023-02-22T03:34:25;22.53;;;21.03;;
11531;SDS011;5822;51.000;5.874;2023-02-22T03:36:57;24.08;;;22.48;;
11531;SDS011;5822;51.000;5.874;2023-02-22T03:39:26;24.23;;;22.63;;
11531;SDS011;5822;51.000;5.874;2023-02-22T03:41:59;22.98;;;21.48;;
11531;SDS011;5822;51.000;5.874;2023-02-22T03:44:30;22.50;;;21.10;;
11531;SDS011;5822;51.000;5.874;2023-02-22T03:47:00;21.77;;;20.38;;
11531;SDS011;5822;51.000;5.874;2023-02-22T03:51:59;21.05;;;19.75;;
11531;SDS011;5822;51.000;5.874;2023-02-22T03:54:26;20.67;;;19.40;;
11531;SDS011;5822;51.000;5.874;2023-02-22T03:57:00;21.10;;;19.80;;
11531;SDS011;5822;51.000;5.874;2023-02-22T03:59:53;22.63;;;21.23;;
11531;SDS011;5822;51.000;5.874;2023-02-22T04:02:19;22.80;;;21.40;;
11531;SDS011;5822;51.000;5.874;2023-02-22T04:04:47;22.05;;;20.65;;
11531;SDS011;5822;51.000;5.874;2023-02-22T04:07:12;22.55;;;21.13;;
11531;SDS011;5822;51.000;5.874;2023-02-22T04:09:38;21.13;;;19.83;;
11531;SDS011;5822;51.000;5.874;2023-02-22T04:12:04;21.40;;;20.10;;
11531;SDS011;5822;51.000;5.874;2023-02-22T04:14:30;20.90;;;19.60;;
11531;SDS011;5822;51.000;5.874;2023-02-22T04:16:55;22.00;;;20.60;;
11531;SDS011;5822;51.000;5.874;2023-02-22T04:19:21;22.00;;;20.60;;
11531;SDS011;5822;51.000;5.874;2023-02-22T04:21:47;21.27;;;19.97;;
11531;SDS011;5822;51.000;5.874;2023-02-22T04:24:13;21.70;;;20.30;;
11531;SDS011;5822;51.000;5.874;2023-02-22T04:26:38;22.73;;;21.33;;
11531;SDS011;5822;51.000;5.874;2023-02-22T04:29:04;22.65;;;21.25;;
11531;SDS011;5822;51.000;5.874;2023-02-22T04:31:31;23.13;;;21.63;;
11531;SDS011;5822;51.000;5.874;2023-02-22T04:33:57;22.95;;;21.45;;
11531;SDS011;5822;51.000;5.874;2023-02-22T04:36:24;22.20;;;20.80;;
11531;SDS011;5822;51.000;5.874;2023-02-22T04:38:51;22.52;;;21.13;;
11531;SDS011;5822;51.000;5.874;2023-02-22T04:41:17;23.48;;;21.98;;
11531;SDS011;5822;51.000;5.874;2023-02-22T04:43:43;22.10;;;20.70;;
11531;SDS011;5822;51.000;5.874;2023-02-22T04:46:09;21.60;;;20.23;;
11531;SDS011;5822;51.000;5.874;2023-02-22T04:48:34;21.33;;;20.02;;
11531;SDS011;5822;51.000;5.874;2023-02-22T04:51:00;21.77;;;20.38;;
11531;SDS011;5822;51.000;5.874;2023-02-22T04:53:25;22.48;;;21.08;;
11531;SDS011;5822;51.000;5.874;2023-02-22T04:55:51;22.63;;;21.23;;
11531;SDS011;5822;51.000;5.874;2023-02-22T04:58:17;22.50;;;21.10;;
11531;SDS011;5822;51.000;5.874;2023-02-22T05:00:42;22.38;;;20.98;;
11531;SDS011;5822;51.000;5.874;2023-02-22T05:03:08;22.10;;;20.70;;
11531;SDS011;5822;51.000;5.874;2023-02-22T05:05:33;23.37;;;21.87;;
11531;SDS011;5822;51.000;5.874;2023-02-22T05:07:59;23.07;;;21.57;;
11531;SDS011;5822;51.000;5.874;2023-02-22T05:10:25;23.33;;;21.83;;
11531;SDS011;5822;51.000;5.874;2023-02-22T05:12:50;23.17;;;21.67;;
11531;SDS011;5822;51.000;5.874;2023-02-22T05:15:17;22.95;;;21.45;;
11531;SDS011;5822;51.000;5.874;2023-02-22T05:17:44;22.77;;;21.27;;
11531;SDS011;5822;51.000;5.874;2023-02-22T05:20:20;24.02;;;22.42;;
11531;SDS011;5822;51.000;5.874;2023-02-22T05:22:51;24.33;;;22.73;;
11531;SDS011;5822;51.000;5.874;2023-02-22T05:25:18;23.85;;;22.25;;
11531;SDS011;5822;51.000;5.874;2023-02-22T05:27:48;23.17;;;21.67;;
11531;SDS011;5822;51.000;5.874;2023-02-22T05:30:18;24.80;;;23.10;;
11531;SDS011;5822;51.000;5.874;2023-02-22T05:32:47;24.00;;;22.40;;
11531;SDS011;5822;51.000;5.874;2023-02-22T05:35:16;22.80;;;21.30;;
11531;SDS011;5822;51.000;5.874;2023-02-22T05:37:43;22.85;;;21.35;;
11531;SDS011;5822;51.000;5.874;2023-02-22T05:40:09;22.92;;;21.42;;
11531;SDS011;5822;51.000;5.874;2023-02-22T05:42:35;22.10;;;20.70;;
11531;SDS011;5822;51.000;5.874;2023-02-22T05:45:00;21.73;;;20.33;;
11531;SDS011;5822;51.000;5.874;2023-02-22T05:47:27;21.50;;;20.10;;
11531;SDS011;5822;51.000;5.874;2023-02-22T05:49:53;20.70;;;19.40;;
11531;SDS011;5822;51.000;5.874;2023-02-22T05:52:19;20.92;;;19.63;;
11531;SDS011;5822;51.000;5.874;2023-02-22T05:54:45;20.60;;;19.30;;
11531;SDS011;5822;51.000;5.874;2023-02-22T05:57:11;20.80;;;19.50;;
11531;SDS011;5822;51.000;5.874;2023-02-22T05:59:36;20.10;;;18.90;;
11531;SDS011;5822;51.000;5.874;2023-02-22T06:02:02;20.10;;;18.87;;
11531;SDS011;5822;51.000;5.874;2023-02-22T06:04:28;19.83;;;18.63;;
11531;SDS011;5822;51.000;5.874;2023-02-22T06:06:54;20.38;;;19.08;;
11531;SDS011;5822;51.000;5.874;2023-02-22T06:09:20;19.70;;;18.50;;
11531;SDS011;5822;51.000;5.874;2023-02-22T06:11:45;20.17;;;18.97;;
11531;SDS011;5822;51.000;5.874;2023-02-22T06:14:11;20.87;;;19.57;;
11531;SDS011;5822;51.000;5.874;2023-02-22T06:16:37;21.40;;;20.00;;
11531;SDS011;5822;51.000;5.874;2023-02-22T06:19:02;22.73;;;21.23;;
11531;SDS011;5822;51.000;5.874;2023-02-22T06:21:28;23.50;;;21.90;;
11531;SDS011;5822;51.000;5.874;2023-02-22T06:23:54;25.83;;;23.92;;
11531;SDS011;5822;51.000;5.874;2023-02-22T06:26:20;27.58;;;25.65;;
11531;SDS011;5822;51.000;5.874;2023-02-22T06:28:47;28.33;;;26.20;;
11531;SDS011;5822;51.000;5.874;2023-02-22T06:31:13;28.52;;;26.42;;
11531;SDS011;5822;51.000;5.874;2023-02-22T06:33:39;30.13;;;27.75;;
11531;SDS011;5822;51.000;5.874;2023-02-22T06:36:04;29.83;;;27.52;;
11531;SDS011;5822;51.000;5.874;2023-02-22T06:38:31;29.90;;;27.63;;
11531;SDS011;5822;51.000;5.874;2023-02-22T06:40:57;30.38;;;28.08;;
11531;SDS011;5822;51.000;5.874;2023-02-22T06:43:23;29.27;;;27.08;;
11531;SDS011;5822;51.000;5.874;2023-02-22T06:45:49;29.30;;;27.10;;
11531;SDS011;5822;51.000;5.874;2023-02-22T06:48:16;30.48;;;28.17;;
11531;SDS011;5822;51.000;5.874;2023-02-22T06:50:42;29.40;;;27.20;;
11531;SDS011;5822;51.000;5.874;2023-02-22T06:53:08;27.88;;;25.83;;
11531;SDS011;5822;51.000;5.874;2023-02-22T06:55:34;27.05;;;25.08;;
11531;SDS011;5822;51.000;5.874;2023-02-22T06:58:00;26.33;;;24.42;;
11531;SDS011;5822;51.000;5.874;2023-02-22T07:00:27;25.73;;;23.93;;
11531;SDS011;5822;51.000;5.874;2023-02-22T07:02:54;25.08;;;23.33;;
11531;SDS011;5822;51.000;5.874;2023-02-22T07:05:21;24.52;;;22.83;;
11531;SDS011;5822;51.000;5.874;2023-02-22T07:07:48;25.17;;;23.47;;
11531;SDS011;5822;51.000;5.874;2023-02-22T07:10:20;35.85;;;33.75;;
11531;SDS011;5822;51.000;5.874;2023-02-22T07:12:49;42.28;;;39.97;;
11531;SDS011;5822;51.000;5.874;2023-02-22T07:15:16;56.88;;;54.00;;
11531;SDS011;5822;51.000;5.874;2023-02-22T07:17:45;57.33;;;54.43;;
11531;SDS011;5822;51.000;5.874;2023-02-22T07:20:11;52.30;;;49.70;;
11531;SDS011;5822;51.000;5.874;2023-02-22T07:22:37;45.42;;;43.13;;
11531;SDS011;5822;51.000;5.874;2023-02-22T07:25:03;43.13;;;40.92;;
11531;SDS011;5822;51.000;5.874;2023-02-22T07:27:30;41.97;;;39.78;;
11531;SDS011;5822;51.000;5.874;2023-02-22T07:29:56;40.75;;;38.65;;
11531;SDS011;5822;51.000;5.874;2023-02-22T07:32:21;31.02;;;29.23;;
11531;SDS011;5822;51.000;5.874;2023-02-22T07:34:47;37.10;;;35.13;;
11531;SDS011;5822;51.000;5.874;2023-02-22T07:37:12;24.30;;;22.80;;
11531;SDS011;5822;51.000;5.874;2023-02-22T07:39:38;27.42;;;25.83;;
11531;SDS011;5822;51.000;5.874;2023-02-22T07:42:06;32.00;;;30.30;;
11531;SDS011;5822;51.000;5.874;2023-02-22T07:44:31;49.30;;;47.00;;
11531;SDS011;5822;51.000;5.874;2023-02-22T07:46:57;48.35;;;45.95;;
11531;SDS011;5822;51.000;5.874;2023-02-22T07:49:22;56.58;;;53.88;;
11531;SDS011;5822;51.000;5.874;2023-02-22T07:51:48;49.80;;;47.40;;
11531;SDS011;5822;51.000;5.874;2023-02-22T07:54:14;47.50;;;45.20;;
11531;SDS011;5822;51.000;5.874;2023-02-22T07:56:43;43.67;;;41.57;;
11531;SDS011;5822;51.000;5.874;2023-02-22T07:59:10;43.00;;;40.90;;
11531;SDS011;5822;51.000;5.874;2023-02-22T08:01:35;44.85;;;42.65;;
11531;SDS011;5822;51.000;5.874;2023-02-22T08:04:04;39.28;;;37.38;;
11531;SDS011;5822;51.000;5.874;2023-02-22T08:06:30;36.10;;;34.30;;
11531;SDS011;5822;51.000;5.874;2023-02-22T08:08:56;28.27;;;26.67;;
11531;SDS011;5822;51.000;5.874;2023-02-22T08:11:22;29.58;;;27.98;;
11531;SDS011;5822;51.000;5.874;2023-02-22T08:13:48;27.13;;;25.63;;
11531;SDS011;5822;51.000;5.874;2023-02-22T08:16:14;21.27;;;19.98;;
11531;SDS011;5822;51.000;5.874;2023-02-22T08:18:40;30.00;;;28.40;;
11531;SDS011;5822;51.000;5.874;2023-02-22T08:21:06;36.97;;;35.07;;
11531;SDS011;5822;51.000;5.874;2023-02-22T08:23:31;50.33;;;47.93;;
11531;SDS011;5822;51.000;5.874;2023-02-22T08:26:04;59.40;;;56.50;;
11531;SDS011;5822;51.000;5.874;2023-02-22T08:28:34;51.03;;;48.55;;
11531;SDS011;5822;51.000;5.874;2023-02-22T08:30:59;49.20;;;46.80;;
11531;SDS011;5822;51.000;5.874;2023-02-22T08:33:25;47.67;;;45.37;;
11531;SDS011;5822;51.000;5.874;2023-02-22T08:35:51;48.50;;;46.07;;
11531;SDS011;5822;51.000;5.874;2023-02-22T08:38:18;46.40;;;44.20;;
11531;SDS011;5822;51.000;5.874;2023-02-22T08:40:46;46.67;;;44.37;;
11531;SDS011;5822;51.000;5.874;2023-02-22T08:43:12;46.63;;;44.33;;
11531;SDS011;5822;51.000;5.874;2023-02-22T08:45:38;44.53;;;42.33;;
11531;SDS011;5822;51.000;5.874;2023-02-22T08:48:05;35.58;;;33.78;;
11531;SDS011;5822;51.000;5.874;2023-02-22T08:50:31;25.52;;;24.05;;
11531;SDS011;5822;51.000;5.874;2023-02-22T08:53:00;30.25;;;28.65;;
11531;SDS011;5822;51.000;5.874;2023-02-22T08:55:28;23.52;;;22.13;;
11531;SDS011;5822;51.000;5.874;2023-02-22T08:57:56;33.38;;;31.58;;
11531;SDS011;5822;51.000;5.874;2023-02-22T09:00:23;41.97;;;39.88;;
11531;SDS011;5822;51.000;5.874;2023-02-22T09:02:49;44.72;;;42.63;;
11531;SDS011;5822;51.000;5.874;2023-02-22T09:05:15;55.40;;;52.70;;
11531;SDS011;5822;51.000;5.874;2023-02-22T09:07:41;49.57;;;47.13;;
11531;SDS011;5822;51.000;5.874;2023-02-22T09:10:10;46.80;;;44.50;;
11531;SDS011;5822;51.000;5.874;2023-02-22T09:12:39;44.15;;;42.05;;
11531;SDS011;5822;51.000;5.874;2023-02-22T09:15:05;41.33;;;39.28;;
11531;SDS011;5822;51.000;5.874;2023-02-22T09:17:31;40.63;;;38.63;;
11531;SDS011;5822;51.000;5.874;2023-02-22T09:19:57;40.63;;;38.53;;
11531;SDS011;5822;51.000;5.874;2023-02-22T09:22:23;36.67;;;34.78;;
11531;SDS011;5822;51.000;5.874;2023-02-22T09:24:48;33.38;;;31.58;;
11531;SDS011;5822;51.000;5.874;2023-02-22T09:27:16;31.52;;;29.92;;
11531;SDS011;5822;51.000;5.874;2023-02-22T09:29:46;26.73;;;25.23;;
11531;SDS011;5822;51.000;5.874;2023-02-22T09:32:12;26.35;;;24.85;;
11531;SDS011;5822;51.000;5.874;2023-02-22T09:34:42;21.17;;;19.88;;
11531;SDS011;5822;51.000;5.874;2023-02-22T09:37:10;21.37;;;20.07;;
11531;SDS011;5822;51.000;5.874;2023-02-22T09:39:36;24.95;;;23.55;;
11531;SDS011;5822;51.000;5.874;2023-02-22T09:42:04;28.55;;;27.05;;
11531;SDS011;5822;51.000;5.874;2023-02-22T09:44:51;38.37;;;36.50;;
11531;SDS011;5822;51.000;5.874;2023-02-22T09:47:20;42.90;;;40.83;;
11531;SDS011;5822;51.000;5.874;2023-02-22T09:50:01;35.63;;;33.83;;
11531;SDS011;5822;51.000;5.874;2023-02-22T09:52:46;35.58;;;33.78;;
11531;SDS011;5822;51.000;5.874;2023-02-22T09:57:55;35.72;;;33.92;;
11531;SDS011;5822;51.000;5.874;2023-02-22T10:00:35;32.22;;;30.58;;
11531;SDS011;5822;51.000;5.874;2023-02-22T10:05:38;31.67;;;30.08;;
11531;SDS011;5822;51.000;5.874;2023-02-22T10:08:14;30.35;;;28.75;;
11531;SDS011;5822;51.000;5.874;2023-02-22T10:10:43;22.67;;;21.38;;
11531;SDS011;5822;51.000;5.874;2023-02-22T10:21:46;25.00;;;23.70;;
11531;SDS011;5822;51.000;5.874;2023-02-22T10:24:54;26.60;;;25.10;;
11531;SDS011;5822;51.000;5.874;2023-02-22T10:27:33;26.83;;;25.42;;
11531;SDS011;5822;51.000;5.874;2023-02-22T10:30:13;30.00;;;28.40;;
11531;SDS011;5822;51.000;5.874;2023-02-22T10:32:41;28.00;;;26.45;;
11531;SDS011;5822;51.000;5.874;2023-02-22T10:35:15;27.27;;;25.77;;
11531;SDS011;5822;51.000;5.874;2023-02-22T10:37:50;19.80;;;18.60;;
11531;SDS011;5822;51.000;5.874;2023-02-22T10:40:37;21.20;;;19.90;;
11531;SDS011;5822;51.000;5.874;2023-02-22T10:43:03;19.90;;;18.70;;
11531;SDS011;5822;51.000;5.874;2023-02-22T10:45:31;22.40;;;21.20;;
11531;SDS011;5822;51.000;5.874;2023-02-22T10:47:59;23.27;;;21.97;;
11531;SDS011;5822;51.000;5.874;2023-02-22T10:50:32;24.10;;;22.80;;
11531;SDS011;5822;51.000;5.874;2023-02-22T10:53:00;24.20;;;22.90;;
11531;SDS011;5822;51.000;5.874;2023-02-22T10:55:26;23.15;;;21.85;;
11531;SDS011;5822;51.000;5.874;2023-02-22T10:57:58;23.52;;;22.23;;
11531;SDS011;5822;51.000;5.874;2023-02-22T11:00:35;23.38;;;22.10;;
11531;SDS011;5822;51.000;5.874;2023-02-22T11:03:14;19.47;;;18.37;;
11531;SDS011;5822;51.000;5.874;2023-02-22T11:05:41;22.00;;;20.80;;
11531;SDS011;5822;51.000;5.874;2023-02-22T11:10:54;24.50;;;23.20;;
11531;SDS011;5822;51.000;5.874;2023-02-22T11:15:54;19.27;;;18.17;;
11531;SDS011;5822;51.000;5.874;2023-02-22T11:18:31;18.88;;;17.77;;
11531;SDS011;5822;51.000;5.874;2023-02-22T11:21:05;19.20;;;18.10;;
11531;SDS011;5822;51.000;5.874;2023-02-22T11:23:34;21.15;;;19.95;;
11531;SDS011;5822;51.000;5.874;2023-02-22T11:26:04;21.10;;;20.00;;
11531;SDS011;5822;51.000;5.874;2023-02-22T11:28:31;23.00;;;21.80;;
11531;SDS011;5822;51.000;5.874;2023-02-22T11:31:07;25.15;;;23.77;;
11531;SDS011;5822;51.000;5.874;2023-02-22T11:33:56;19.55;;;18.45;;
11531;SDS011;5822;51.000;5.874;2023-02-22T11:36:34;19.38;;;18.27;;
11531;SDS011;5822;51.000;5.874;2023-02-22T11:39:02;19.30;;;18.20;;
11531;SDS011;5822;51.000;5.874;2023-02-22T11:41:30;21.73;;;20.52;;
11531;SDS011;5822;51.000;5.874;2023-02-22T11:44:21;21.73;;;20.52;;
11531;SDS011;5822;51.000;5.874;2023-02-22T11:46:51;19.25;;;18.15;;
11531;SDS011;5822;51.000;5.874;2023-02-22T11:49:22;20.08;;;18.88;;
11531;SDS011;5822;51.000;5.874;2023-02-22T11:52:17;20.87;;;19.57;;
11531;SDS011;5822;51.000;5.874;2023-02-22T11:55:12;20.02;;;18.83;;
11531;SDS011;5822;51.000;5.874;2023-02-22T12:00:49;23.20;;;22.00;;
11531;SDS011;5822;51.000;5.874;2023-02-22T12:11:54;23.13;;;21.83;;
11531;SDS011;5822;51.000;5.874;2023-02-22T12:17:51;20.48;;;19.27;;
11531;SDS011;5822;51.000;5.874;2023-02-22T12:20:45;20.80;;;19.60;;
11531;SDS011;5822;51.000;5.874;2023-02-22T12:23:40;20.60;;;19.40;;
11531;SDS011;5822;51.000;5.874;2023-02-22T12:29:03;21.92;;;20.63;;
11531;SDS011;5822;51.000;5.874;2023-02-22T12:45:05;19.55;;;18.35;;
11531;SDS011;5822;51.000;5.874;2023-02-22T12:47:42;19.92;;;18.73;;
11531;SDS011;5822;51.000;5.874;2023-02-22T12:50:19;20.20;;;19.00;;
11531;SDS011;5822;51.000;5.874;2023-02-22T12:55:34;22.85;;;21.55;;
11531;SDS011;5822;51.000;5.874;2023-02-22T13:03:34;19.70;;;18.60;;
11531;SDS011;5822;51.000;5.874;2023-02-22T13:08:40;21.75;;;20.50;;
11531;SDS011;5822;51.000;5.874;2023-02-22T13:11:42;19.85;;;18.65;;
11531;SDS011;5822;51.000;5.874;2023-02-22T13:20:13;21.95;;;20.65;;
11531;SDS011;5822;51.000;5.874;2023-02-22T13:22:59;21.17;;;19.98;;
11531;SDS011;5822;51.000;5.874;2023-02-22T13:30:41;19.33;;;18.23;;
11531;SDS011;5822;51.000;5.874;2023-02-22T13:52:20;19.05;;;17.85;;
11531;SDS011;5822;51.000;5.874;2023-02-22T13:54:48;19.20;;;18.10;;
11531;SDS011;5822;51.000;5.874;2023-02-22T13:57:29;20.00;;;18.80;;
11531;SDS011;5822;51.000;5.874;2023-02-22T14:10:48;18.48;;;17.38;;
11531;SDS011;5822;51.000;5.874;2023-02-22T14:13:21;20.55;;;19.35;;
11531;SDS011;5822;51.000;5.874;2023-02-22T14:18:22;19.38;;;18.17;;
11531;SDS011;5822;51.000;5.874;2023-02-22T14:21:22;19.48;;;18.27;;
11531;SDS011;5822;51.000;5.874;2023-02-22T14:23:46;19.55;;;18.35;;
11531;SDS011;5822;51.000;5.874;2023-02-22T14:26:15;21.07;;;19.77;;
11531;SDS011;5822;51.000;5.874;2023-02-22T14:28:43;22.07;;;20.70;;
11531;SDS011;5822;51.000;5.874;2023-02-22T14:31:15;20.35;;;19.05;;
11531;SDS011;5822;51.000;5.874;2023-02-22T14:33:59;20.58;;;19.27;;
11531;SDS011;5822;51.000;5.874;2023-02-22T14:39:51;21.35;;;20.05;;
11531;SDS011;5822;51.000;5.874;2023-02-22T14:42:57;21.35;;;20.05;;
11531;SDS011;5822;51.000;5.874;2023-02-22T14:50:40;23.63;;;22.13;;
11531;SDS011;5822;51.000;5.874;2023-02-22T14:53:16;23.15;;;21.75;;
11531;SDS011;5822;51.000;5.874;2023-02-22T14:56:05;22.42;;;21.02;;
11531;SDS011;5822;51.000;5.874;2023-02-22T14:58:38;21.98;;;20.67;;
11531;SDS011;5822;51.000;5.874;2023-02-22T15:01:48;22.90;;;21.43;;
11531;SDS011;5822;51.000;5.874;2023-02-22T15:03:58;22.55;;;21.25;;
11531;SDS011;5822;51.000;5.874;2023-02-22T15:06:49;24.40;;;22.83;;
11531;SDS011;5822;51.000;5.874;2023-02-22T15:09:20;24.08;;;22.58;;
11531;SDS011;5822;51.000;5.874;2023-02-22T15:14:30;22.50;;;21.15;;
11531;SDS011;5822;51.000;5.874;2023-02-22T15:17:02;23.15;;;21.75;;
11531;SDS011;5822;51.000;5.874;2023-02-22T15:19:36;24.20;;;22.70;;
11531;SDS011;5822;51.000;5.874;2023-02-22T15:22:04;22.75;;;21.35;;
11531;SDS011;5822;51.000;5.874;2023-02-22T15:24:33;24.80;;;23.20;;
11531;SDS011;5822;51.000;5.874;2023-02-22T15:27:05;25.67;;;24.08;;
11531;SDS011;5822;51.000;5.874;2023-02-22T15:29:38;24.23;;;22.70;;
11531;SDS011;5822;51.000;5.874;2023-02-22T15:35:04;22.92;;;21.45;;
11531;SDS011;5822;51.000;5.874;2023-02-22T15:37:43;23.17;;;21.77;;
11531;SDS011;5822;51.000;5.874;2023-02-22T15:40:15;22.30;;;20.90;;
11531;SDS011;5822;51.000;5.874;2023-02-22T15:42:46;22.85;;;21.45;;
11531;SDS011;5822;51.000;5.874;2023-02-22T15:45:29;24.25;;;22.75;;
11531;SDS011;5822;51.000;5.874;2023-02-22T15:47:56;25.50;;;23.63;;
11531;SDS011;5822;51.000;5.874;2023-02-22T15:50:27;25.45;;;23.77;;
11531;SDS011;5822;51.000;5.874;2023-02-22T15:58:06;22.73;;;21.33;;
11531;SDS011;5822;51.000;5.874;2023-02-22T16:00:35;22.60;;;21.30;;
11531;SDS011;5822;51.000;5.874;2023-02-22T16:03:13;21.73;;;20.42;;
11531;SDS011;5822;51.000;5.874;2023-02-22T16:05:50;21.38;;;20.17;;
11531;SDS011;5822;51.000;5.874;2023-02-22T16:13:28;25.45;;;23.85;;
11531;SDS011;5822;51.000;5.874;2023-02-22T16:15:58;22.65;;;21.25;;
11531;SDS011;5822;51.000;5.874;2023-02-22T16:21:00;20.95;;;19.65;;
11531;SDS011;5822;51.000;5.874;2023-02-22T16:23:27;24.27;;;22.88;;
11531;SDS011;5822;51.000;5.874;2023-02-22T16:26:17;22.90;;;21.60;;
11531;SDS011;5822;51.000;5.874;2023-02-22T16:28:46;20.73;;;19.52;;
11531;SDS011;5822;51.000;5.874;2023-02-22T16:31:29;21.30;;;20.00;;
11531;SDS011;5822;51.000;5.874;2023-02-22T16:34:01;21.58;;;20.27;;
11531;SDS011;5822;51.000;5.874;2023-02-22T16:36:38;23.45;;;22.05;;
11531;SDS011;5822;51.000;5.874;2023-02-22T16:41:51;20.58;;;19.38;;
11531;SDS011;5822;51.000;5.874;2023-02-22T16:44:19;20.90;;;19.70;;
11531;SDS011;5822;51.000;5.874;2023-02-22T16:46:49;21.70;;;20.50;;
11531;SDS011;5822;51.000;5.874;2023-02-22T16:49:16;22.73;;;21.42;;
11531;SDS011;5822;51.000;5.874;2023-02-22T16:54:11;21.40;;;20.08;;
11531;SDS011;5822;51.000;5.874;2023-02-22T16:56:39;23.25;;;21.75;;
11531;SDS011;5822;51.000;5.874;2023-02-22T16:59:08;23.93;;;22.43;;
11531;SDS011;5822;51.000;5.874;2023-02-22T17:01:38;24.10;;;22.50;;
11531;SDS011;5822;51.000;5.874;2023-02-22T17:04:20;24.67;;;23.07;;
11531;SDS011;5822;51.000;5.874;2023-02-22T17:06:48;24.83;;;23.13;;
11531;SDS011;5822;51.000;5.874;2023-02-22T17:09:14;24.63;;;23.02;;
11531;SDS011;5822;51.000;5.874;2023-02-22T17:11:44;25.17;;;23.63;;
11531;SDS011;5822;51.000;5.874;2023-02-22T17:14:18;24.83;;;23.13;;
11531;SDS011;5822;51.000;5.874;2023-02-22T17:16:50;23.30;;;21.80;;
11531;SDS011;5822;51.000;5.874;2023-02-22T17:19:20;22.88;;;21.38;;
11531;SDS011;5822;51.000;5.874;2023-02-22T17:21:48;23.52;;;22.13;;
11531;SDS011;5822;51.000;5.874;2023-02-22T17:24:18;22.80;;;21.30;;
11531;SDS011;5822;51.000;5.874;2023-02-22T17:26:47;22.23;;;20.83;;
11531;SDS011;5822;51.000;5.874;2023-02-22T17:29:13;22.60;;;21.20;;
11531;SDS011;5822;51.000;5.874;2023-02-22T17:31:41;22.60;;;21.20;;
11531;SDS011;5822;51.000;5.874;2023-02-22T17:34:07;24.83;;;23.27;;
11531;SDS011;5822;51.000;5.874;2023-02-22T17:36:33;25.20;;;23.50;;
11531;SDS011;5822;51.000;5.874;2023-02-22T17:39:00;25.30;;;23.70;;
11531;SDS011;5822;51.000;5.874;2023-02-22T17:41:27;25.95;;;24.25;;